createdAt,value
2019-01-06T00:02:23.127Z,16.17
2019-01-06T00:05:08.733Z,16.43
2019-01-06T00:07:54.588Z,15.10
2019-01-06T00:11:00.027Z,15.63
2019-01-06T00:13:45.769Z,14.27
2019-01-06T00:16:31.456Z,15.90
2019-01-06T00:19:18.784Z,12.90
2019-01-06T00:22:04.458Z,16.13
2019-01-06T00:24:50.299Z,17.77
2019-01-06T00:27:39.649Z,15.33
2019-01-06T00:30:25.433Z,12.97
2019-01-06T00:33:21.442Z,14.47
2019-01-06T00:36:07.234Z,14.53
2019-01-06T00:39:12.439Z,14.50
2019-01-06T00:42:14.793Z,13.77
2019-01-06T00:45:16.583Z,15.60
2019-01-06T00:48:02.469Z,14.80
2019-01-06T00:51:01.566Z,13.73
2019-01-06T00:53:47.233Z,16.43
2019-01-06T00:56:37.216Z,16.43
2019-01-06T00:59:30.221Z,17.27
2019-01-06T01:02:19.945Z,16.27
2019-01-06T01:05:15.972Z,13.90
2019-01-06T01:08:14.888Z,15.17
2019-01-06T01:11:07.874Z,15.20
2019-01-06T01:13:53.137Z,13.00
2019-01-06T01:16:36.571Z,13.13
2019-01-06T01:19:29.690Z,15.03
2019-01-06T01:22:07.438Z,15.63
2019-01-06T01:24:52.286Z,14.53
2019-01-06T01:27:45.133Z,14.87
2019-01-06T01:30:32.502Z,14.90
2019-01-06T01:33:37.668Z,16.83
2019-01-06T01:36:36.699Z,15.80
2019-01-06T01:39:18.954Z,13.77
2019-01-06T01:41:58.582Z,13.83
2019-01-06T01:44:48.230Z,15.43
2019-01-06T01:47:35.178Z,15.70
2019-01-06T01:50:37.483Z,13.07
2019-01-06T01:53:23.128Z,15.63
2019-01-06T01:56:10.297Z,15.40
2019-01-06T01:59:06.251Z,13.57
2019-01-06T02:01:52.256Z,13.57
2019-01-06T02:04:48.257Z,13.47
2019-01-06T02:07:27.735Z,13.60
2019-01-06T02:10:14.681Z,13.07
2019-01-06T02:13:07.857Z,14.53
2019-01-06T02:15:53.792Z,13.87
2019-01-06T02:18:52.887Z,15.67
2019-01-06T02:21:38.931Z,15.80
2019-01-06T02:24:37.965Z,14.73
2019-01-06T02:27:25.219Z,16.57
2019-01-06T02:30:12.303Z,13.97
2019-01-06T02:33:02.047Z,15.37
2019-01-06T02:35:57.778Z,15.53
2019-01-06T02:38:37.575Z,19.17
2019-01-06T02:41:36.677Z,16.53
2019-01-06T02:44:29.735Z,17.43
2019-01-06T02:47:22.754Z,16.13
2019-01-06T02:50:21.893Z,16.77
2019-01-06T02:53:08.976Z,16.00
2019-01-06T02:56:11.081Z,17.60
2019-01-06T02:59:16.230Z,16.90
2019-01-06T03:02:02.028Z,17.20
2019-01-06T03:04:49.149Z,17.20
2019-01-06T03:07:42.059Z,15.97
2019-01-06T03:10:31.992Z,16.67
2019-01-06T03:13:21.762Z,14.90
2019-01-06T03:16:14.673Z,17.10
2019-01-06T03:19:04.636Z,17.93
2019-01-06T03:21:50.526Z,17.50
2019-01-06T03:24:36.191Z,15.77
2019-01-06T03:27:26.204Z,13.70
2019-01-06T03:30:18.860Z,18.70
2019-01-06T03:33:08.748Z,18.57
2019-01-06T03:36:11.008Z,20.37
2019-01-06T03:39:10.554Z,18.10
2019-01-06T03:42:06.720Z,17.53
2019-01-06T03:44:52.526Z,16.57
2019-01-06T03:47:33.125Z,19.83
2019-01-06T03:50:35.411Z,18.83
2019-01-06T03:53:25.368Z,15.47
2019-01-06T03:56:30.382Z,19.33
2019-01-06T03:59:20.720Z,15.67
2019-01-06T04:02:06.278Z,18.80
2019-01-06T04:04:56.287Z,19.10
2019-01-06T04:07:42.676Z,18.33
2019-01-06T04:10:28.591Z,18.37
2019-01-06T04:13:30.770Z,17.90
2019-01-06T04:16:17.868Z,18.13
2019-01-06T04:19:10.928Z,18.47
2019-01-06T04:21:56.597Z,21.30
2019-01-06T04:24:43.661Z,21.10
2019-01-06T04:27:36.504Z,20.23
2019-01-06T04:30:38.945Z,19.50
2019-01-06T04:33:25.018Z,20.30
2019-01-06T04:36:09.278Z,19.83
2019-01-06T04:38:56.496Z,19.43
2019-01-06T04:41:46.514Z,19.70
2019-01-06T04:44:32.555Z,20.00
2019-01-06T04:47:19.575Z,21.83
2019-01-06T04:50:14.999Z,18.27
2019-01-06T04:53:20.206Z,21.17
2019-01-06T04:56:07.220Z,19.70
2019-01-06T04:58:57.224Z,20.63
2019-01-06T05:01:42.605Z,20.27
2019-01-06T05:04:38.431Z,18.50
2019-01-06T05:07:34.621Z,18.40
2019-01-06T05:10:31.456Z,16.00
2019-01-06T05:13:21.452Z,17.83
2019-01-06T05:16:20.573Z,16.80
2019-01-06T05:19:10.490Z,17.00
2019-01-06T05:22:00.307Z,18.57
2019-01-06T05:24:53.381Z,19.50
2019-01-06T05:27:52.370Z,20.73
2019-01-06T05:30:42.365Z,17.23
2019-01-06T05:33:41.557Z,16.30
2019-01-06T05:36:33.054Z,16.40
2019-01-06T05:39:32.199Z,19.67
2019-01-06T05:42:31.455Z,17.37
2019-01-06T05:45:17.657Z,18.27
2019-01-06T05:47:58.632Z,17.10
2019-01-06T05:50:48.451Z,17.67
2019-01-06T05:53:35.434Z,18.53
2019-01-06T05:56:31.371Z,16.67
2019-01-06T05:59:16.872Z,16.63
2019-01-06T06:02:03.959Z,15.90
2019-01-06T06:05:02.737Z,17.70
2019-01-06T06:08:01.643Z,17.47
2019-01-06T06:10:42.089Z,15.63
2019-01-06T06:13:38.205Z,19.43
2019-01-06T06:16:37.427Z,21.40
2019-01-06T06:19:31.029Z,20.63
2019-01-06T06:22:03.973Z,18.33
2019-01-06T06:24:57.125Z,19.70
2019-01-06T06:27:44.192Z,20.33
2019-01-06T06:30:30.096Z,20.37
2019-01-06T06:33:15.596Z,21.33
2019-01-06T06:36:01.424Z,20.23
2019-01-06T06:38:57.616Z,21.47
2019-01-06T06:41:48.130Z,20.27
2019-01-06T06:44:33.938Z,21.27
2019-01-06T06:47:24.204Z,21.10
2019-01-06T06:50:09.987Z,20.70
2019-01-06T06:52:57.265Z,21.03
2019-01-06T06:55:42.968Z,22.00
2019-01-06T06:58:37.444Z,21.73
2019-01-06T07:01:50.286Z,20.17
2019-01-06T07:04:37.059Z,22.67
2019-01-06T07:07:24.167Z,26.97
2019-01-06T07:10:18.303Z,28.10
2019-01-06T07:13:04.775Z,24.47
2019-01-06T07:16:07.387Z,26.30
2019-01-06T07:18:53.022Z,26.67
2019-01-06T07:21:38.808Z,27.17
2019-01-06T07:24:24.296Z,23.87
2019-01-06T07:27:20.116Z,22.10
2019-01-06T07:30:07.381Z,13.40
2019-01-06T07:32:49.266Z,18.43
2019-01-06T07:35:27.460Z,16.33
2019-01-06T07:38:26.735Z,11.97
2019-01-06T07:41:10.627Z,12.27
2019-01-06T07:44:03.516Z,7.50
2019-01-06T07:46:50.505Z,6.00
2019-01-06T07:49:37.230Z,5.97
2019-01-06T07:52:24.328Z,6.17
2019-01-06T07:55:03.011Z,6.10
2019-01-06T07:57:48.630Z,6.67
2019-01-06T08:00:34.144Z,5.70
2019-01-06T08:03:19.897Z,7.10
2019-01-06T08:06:05.398Z,6.77
2019-01-06T08:08:53.118Z,6.97
2019-01-06T08:11:55.188Z,6.60
2019-01-06T08:14:40.929Z,6.87
2019-01-06T08:17:27.961Z,5.87
2019-01-06T08:20:13.472Z,6.50
2019-01-06T08:22:59.198Z,6.00
2019-01-06T08:25:49.259Z,5.43
2019-01-06T08:28:43.485Z,5.90
2019-01-06T08:31:30.473Z,7.10
2019-01-06T08:34:24.009Z,6.00
2019-01-06T08:37:14.068Z,9.03
2019-01-06T08:39:59.521Z,7.20
2019-01-06T08:42:58.680Z,7.00
2019-01-06T08:45:45.999Z,6.30
2019-01-06T08:48:28.719Z,6.23
2019-01-06T08:51:08.954Z,5.70
2019-01-06T08:53:51.127Z,6.37
2019-01-06T08:56:38.316Z,6.83
2019-01-06T08:59:24.080Z,7.10
2019-01-06T09:02:20.167Z,6.07
2019-01-06T09:05:09.307Z,7.53
2019-01-06T09:07:56.642Z,8.27
2019-01-06T09:10:51.801Z,5.93
2019-01-06T09:13:38.915Z,6.83
2019-01-06T09:16:25.947Z,7.37
2019-01-06T09:19:12.923Z,5.60
2019-01-06T09:22:01.623Z,7.63
2019-01-06T09:24:54.624Z,6.43
2019-01-06T09:27:42.964Z,6.40
2019-01-06T09:30:30.061Z,6.60
2019-01-06T09:33:15.551Z,8.03
2019-01-06T09:36:11.698Z,5.83
2019-01-06T09:38:57.677Z,6.37
2019-01-06T09:41:43.466Z,7.07
2019-01-06T09:44:36.214Z,8.57
2019-01-06T09:47:22.137Z,7.33
2019-01-06T09:50:09.352Z,8.50
2019-01-06T09:52:59.666Z,7.73
2019-01-06T09:55:55.813Z,6.17
2019-01-06T09:58:42.185Z,7.13
2019-01-06T10:01:37.424Z,7.77
2019-01-06T10:04:23.238Z,7.47
2019-01-06T10:07:16.724Z,7.30
2019-01-06T10:10:02.564Z,7.23
2019-01-06T10:12:55.948Z,7.30
2019-01-06T10:15:49.107Z,7.50
2019-01-06T10:18:34.729Z,7.57
2019-01-06T10:21:22.139Z,7.57
2019-01-06T10:24:27.420Z,8.43
2019-01-06T10:27:13.315Z,8.70
2019-01-06T10:30:09.537Z,9.53
2019-01-06T10:32:56.855Z,8.93
2019-01-06T10:35:42.391Z,9.00
2019-01-06T10:38:39.919Z,8.50
2019-01-06T10:41:35.880Z,8.00
2019-01-06T10:44:22.105Z,8.50
2019-01-06T10:47:21.062Z,10.67
2019-01-06T10:50:06.915Z,9.53
2019-01-06T10:53:00.009Z,8.07
2019-01-06T10:55:58.993Z,8.93
2019-01-06T10:58:52.062Z,8.27
2019-01-06T11:01:41.048Z,7.30
2019-01-06T11:04:30.794Z,9.27
2019-01-06T11:07:30.048Z,7.20
2019-01-06T11:10:16.263Z,7.33
2019-01-06T11:13:12.476Z,10.13
2019-01-06T11:16:05.828Z,7.17
2019-01-06T11:18:52.950Z,9.10
2019-01-06T11:21:39.281Z,9.40
2019-01-06T11:24:24.800Z,7.73
2019-01-06T11:27:10.071Z,8.47
2019-01-06T11:30:03.719Z,7.50
2019-01-06T11:32:54.490Z,6.20
2019-01-06T11:35:56.407Z,7.10
2019-01-06T11:38:49.541Z,7.13
2019-01-06T11:41:46.929Z,7.57
2019-01-06T11:44:49.392Z,7.80
2019-01-06T11:47:32.468Z,7.53
2019-01-06T11:50:18.508Z,8.93
2019-01-06T11:53:06.431Z,7.00
2019-01-06T11:56:05.781Z,6.67
2019-01-06T11:58:55.687Z,15.70
2019-01-06T12:01:49.072Z,7.17
2019-01-06T12:05:07.207Z,10.27
2019-01-06T12:07:57.366Z,7.20
2019-01-06T12:11:02.824Z,8.10
2019-01-06T12:13:50.006Z,7.37
2019-01-06T12:16:41.928Z,7.30
2019-01-06T12:19:23.357Z,8.40
2019-01-06T12:22:13.176Z,12.30
2019-01-06T12:25:15.712Z,14.90
2019-01-06T12:27:54.068Z,11.40
2019-01-06T12:30:43.681Z,8.17
2019-01-06T12:33:42.620Z,7.23
2019-01-06T12:36:41.818Z,7.20
2019-01-06T12:39:27.913Z,7.17
2019-01-06T12:42:26.890Z,7.33
2019-01-06T12:45:14.175Z,7.00
2019-01-06T12:48:13.388Z,8.97
2019-01-06T12:50:51.620Z,8.67
2019-01-06T12:53:41.898Z,12.03
2019-01-06T12:56:28.845Z,11.47
2019-01-06T12:59:34.024Z,12.93
2019-01-06T13:02:21.156Z,9.77
2019-01-06T13:05:16.997Z,9.70
2019-01-06T13:08:06.760Z,9.73
2019-01-06T13:10:52.780Z,8.50
2019-01-06T13:13:45.931Z,9.67
2019-01-06T13:16:39.908Z,10.90
2019-01-06T13:19:30.140Z,9.23
2019-01-06T13:22:19.640Z,8.80
2019-01-06T13:25:06.781Z,9.10
2019-01-06T13:27:52.415Z,8.40
2019-01-06T13:30:48.917Z,9.40
2019-01-06T13:33:36.012Z,8.77
2019-01-06T13:36:23.331Z,8.70
2019-01-06T13:39:13.386Z,7.70
2019-01-06T13:41:59.056Z,8.63
2019-01-06T13:44:53.765Z,9.97
2019-01-06T13:47:39.823Z,9.20
2019-01-06T13:50:38.935Z,7.93
2019-01-06T13:53:40.972Z,8.47
2019-01-06T13:56:26.524Z,8.07
2019-01-06T13:59:12.181Z,6.97
2019-01-06T14:02:14.264Z,7.70
2019-01-06T14:04:53.736Z,7.83
2019-01-06T14:07:38.813Z,7.00
2019-01-06T14:10:25.204Z,7.97
2019-01-06T14:13:14.882Z,7.67
2019-01-06T14:16:02.454Z,8.73
2019-01-06T14:18:58.489Z,8.63
2019-01-06T14:21:49.448Z,9.00
2019-01-06T14:24:39.478Z,9.60
2019-01-06T14:27:30.871Z,8.37
2019-01-06T14:30:16.590Z,9.17
2019-01-06T14:33:07.562Z,7.63
2019-01-06T14:35:54.626Z,7.80
2019-01-06T14:38:59.720Z,7.87
2019-01-06T14:41:45.666Z,7.47
2019-01-06T14:44:31.487Z,7.80
2019-01-06T14:47:30.741Z,7.60
2019-01-06T14:50:18.044Z,7.27
2019-01-06T14:53:03.625Z,7.17
2019-01-06T14:55:43.231Z,8.90
2019-01-06T14:58:36.018Z,12.97
2019-01-06T15:01:21.895Z,16.93
2019-01-06T15:04:27.478Z,16.00
2019-01-06T15:07:14.460Z,17.80
2019-01-06T15:10:12.562Z,20.87
2019-01-06T15:13:14.631Z,20.33
2019-01-06T15:16:00.317Z,18.53
2019-01-06T15:18:46.084Z,22.50
2019-01-06T15:21:35.989Z,10.73
2019-01-06T15:24:35.224Z,8.90
2019-01-06T15:27:21.648Z,7.53
2019-01-06T15:30:09.117Z,9.07
2019-01-06T15:32:59.880Z,8.57
2019-01-06T15:35:41.940Z,7.93
2019-01-06T15:38:41.284Z,7.23
2019-01-06T15:41:26.799Z,7.17
2019-01-06T15:44:13.900Z,7.23
2019-01-06T15:47:03.062Z,8.23
2019-01-06T15:50:07.994Z,7.70
2019-01-06T15:52:58.410Z,7.27
2019-01-06T15:55:44.300Z,7.97
2019-01-06T15:58:37.367Z,7.17
2019-01-06T16:01:23.432Z,7.60
2019-01-06T16:04:11.199Z,8.00
2019-01-06T16:07:10.146Z,7.60
2019-01-06T16:10:09.560Z,7.27
2019-01-06T16:13:14.953Z,7.40
2019-01-06T16:16:01.200Z,7.17
2019-01-06T16:18:46.883Z,7.90
2019-01-06T16:21:33.883Z,7.40
2019-01-06T16:24:39.228Z,8.27
2019-01-06T16:27:25.498Z,8.13
2019-01-06T16:30:21.663Z,8.43
2019-01-06T16:33:09.295Z,9.87
2019-01-06T16:35:59.933Z,10.63
2019-01-06T16:38:46.927Z,11.23
2019-01-06T16:41:32.784Z,11.30
2019-01-06T16:44:31.925Z,12.17
2019-01-06T16:47:34.288Z,10.70
2019-01-06T16:50:39.651Z,11.17
2019-01-06T16:53:25.388Z,10.50
2019-01-06T16:56:24.521Z,10.90
2019-01-06T16:59:26.877Z,10.53
2019-01-06T17:02:12.512Z,10.23
2019-01-06T17:04:58.395Z,10.20
2019-01-06T17:07:44.001Z,10.27
2019-01-06T17:10:37.083Z,9.57
2019-01-06T17:13:27.141Z,10.40
2019-01-06T17:16:07.325Z,10.70
2019-01-06T17:19:03.712Z,9.03
2019-01-06T17:21:49.713Z,10.53
2019-01-06T17:24:36.716Z,9.93
2019-01-06T17:27:23.838Z,8.03
2019-01-06T17:30:13.715Z,10.63
2019-01-06T17:32:57.434Z,9.43
2019-01-06T17:35:50.569Z,9.40
2019-01-06T17:38:36.407Z,9.03
2019-01-06T17:41:35.495Z,9.20
2019-01-06T17:44:37.585Z,12.20
2019-01-06T17:47:28.249Z,11.50
2019-01-06T17:50:18.687Z,8.73
2019-01-06T17:53:21.298Z,8.13
2019-01-06T17:56:23.545Z,9.63
2019-01-06T17:59:22.678Z,7.77
2019-01-06T18:02:12.869Z,6.97
2019-01-06T18:05:01.880Z,8.10
2019-01-06T18:07:47.404Z,7.83
2019-01-06T18:10:37.622Z,7.20
2019-01-06T18:13:16.630Z,8.33
2019-01-06T18:16:09.470Z,12.13
2019-01-06T18:18:59.684Z,12.43
2019-01-06T18:21:49.913Z,8.33
2019-01-06T18:24:45.928Z,8.83
2019-01-06T18:27:32.989Z,7.73
2019-01-06T18:30:18.676Z,10.27
2019-01-06T18:33:05.819Z,9.40
2019-01-06T18:36:00.297Z,9.40
2019-01-06T18:39:02.962Z,8.43
2019-01-06T18:41:53.848Z,8.83
2019-01-06T18:44:40.939Z,6.67
2019-01-06T18:47:28.215Z,8.40
2019-01-06T18:50:14.118Z,9.00
2019-01-06T18:53:03.977Z,8.60
2019-01-06T18:55:49.600Z,9.93
2019-01-06T18:58:35.172Z,8.90
2019-01-06T19:01:20.704Z,9.03
2019-01-06T19:04:13.614Z,9.33
2019-01-06T19:06:59.346Z,9.57
2019-01-06T19:09:47.376Z,11.07
2019-01-06T19:12:42.768Z,9.33
2019-01-06T19:15:38.554Z,9.57
2019-01-06T19:18:19.519Z,10.13
2019-01-06T19:21:42.602Z,8.63
2019-01-06T19:24:42.218Z,8.93
2019-01-06T19:27:28.073Z,8.60
2019-01-06T19:30:33.471Z,12.93
2019-01-06T19:33:19.013Z,8.40
2019-01-06T19:36:08.811Z,8.67
2019-01-06T19:38:54.024Z,8.07
2019-01-06T19:41:53.163Z,8.27
2019-01-06T19:44:51.795Z,9.07
2019-01-06T19:47:51.113Z,9.90
2019-01-06T19:50:36.670Z,8.77
2019-01-06T19:53:32.813Z,9.23
2019-01-06T19:56:25.701Z,9.67
2019-01-06T19:59:21.801Z,7.57
2019-01-06T20:02:08.982Z,8.77
2019-01-06T20:04:54.839Z,8.30
2019-01-06T20:07:40.381Z,8.73
2019-01-06T20:10:30.161Z,9.63
2019-01-06T20:13:29.031Z,11.37
2019-01-06T20:16:14.731Z,8.57
2019-01-06T20:19:16.923Z,9.87
2019-01-06T20:22:16.109Z,8.77
2019-01-06T20:25:08.940Z,9.27
2019-01-06T20:27:54.740Z,9.83
2019-01-06T20:30:44.671Z,8.40
2019-01-06T20:33:49.924Z,9.17
2019-01-06T20:36:56.548Z,8.37
2019-01-06T20:39:42.371Z,8.17
2019-01-06T20:42:29.745Z,9.80
2019-01-06T20:45:15.628Z,9.00
2019-01-06T20:48:01.080Z,7.70
2019-01-06T20:50:48.190Z,8.50
2019-01-06T20:53:30.121Z,7.37
2019-01-06T20:56:21.916Z,6.73
2019-01-06T20:59:11.582Z,7.27
2019-01-06T21:02:16.911Z,7.23
2019-01-06T21:05:04.389Z,5.97
2019-01-06T21:07:50.366Z,5.77
2019-01-06T21:10:47.381Z,5.77
2019-01-06T21:13:35.289Z,6.10
2019-01-06T21:16:36.084Z,6.00
2019-01-06T21:19:26.243Z,5.87
2019-01-06T21:22:10.014Z,5.87
2019-01-06T21:24:55.849Z,5.87
2019-01-06T21:27:46.740Z,4.97
2019-01-06T21:30:37.031Z,5.33
2019-01-06T21:33:30.195Z,5.87
2019-01-06T21:36:23.291Z,5.67
2019-01-06T21:39:19.266Z,5.90
2019-01-06T21:42:06.463Z,5.60
2019-01-06T21:45:07.934Z,4.93
2019-01-06T21:48:04.063Z,6.43
2019-01-06T21:50:50.070Z,5.23
2019-01-06T21:53:33.849Z,5.20
2019-01-06T21:56:19.727Z,5.80
2019-01-06T21:59:15.714Z,5.67
2019-01-06T22:02:16.071Z,6.60
2019-01-06T22:05:18.480Z,5.87
2019-01-06T22:08:08.372Z,6.00
2019-01-06T22:10:58.635Z,5.37
2019-01-06T22:13:54.660Z,5.67
2019-01-06T22:16:44.692Z,5.47
2019-01-06T22:19:34.460Z,6.03
2019-01-06T22:22:12.350Z,5.57
2019-01-06T22:25:05.581Z,5.77
2019-01-06T22:27:47.110Z,5.70
2019-01-06T22:30:32.928Z,5.87
2019-01-06T22:33:25.849Z,5.23
2019-01-06T22:36:12.807Z,5.63
2019-01-06T22:38:58.726Z,5.27
2019-01-06T22:41:45.407Z,5.50
2019-01-06T22:44:32.467Z,5.80
2019-01-06T22:47:28.426Z,5.57
2019-01-06T22:50:09.578Z,5.67
2019-01-06T22:52:55.648Z,5.50
2019-01-06T22:55:45.766Z,5.00
2019-01-06T22:58:36.808Z,5.57
2019-01-06T23:01:22.130Z,5.53
2019-01-06T23:04:09.032Z,5.30
2019-01-06T23:07:04.533Z,5.67
2019-01-06T23:09:53.626Z,5.30
2019-01-06T23:12:41.282Z,5.43
2019-01-06T23:15:37.225Z,6.13
2019-01-06T23:18:22.963Z,5.37
2019-01-06T23:21:08.601Z,6.27
2019-01-06T23:23:55.694Z,5.30
2019-01-06T23:26:53.669Z,6.60
2019-01-06T23:29:39.438Z,5.60
2019-01-06T23:32:22.618Z,6.07
2019-01-06T23:35:04.713Z,7.85
2019-01-06T23:37:50.351Z,6.73
2019-01-06T23:40:35.868Z,6.77
2019-01-06T23:43:21.557Z,6.50
2019-01-06T23:46:14.351Z,6.93
2019-01-06T23:49:07.554Z,7.67
2019-01-06T23:51:54.537Z,6.70
2019-01-06T23:54:40.171Z,5.87
2019-01-06T23:57:45.396Z,6.17
